Sat, 27 Feb 2021 12:51:32 UTC

Information for RPM ethtool-5-1.fc7.i386.rpm

ID29773
Nameethtool
Version5
Release1.fc7
Epoch
Archi386
SummaryEthernet settings tool for PCI ethernet cards
DescriptionThis utility allows querying and changing of ethernet card settings, such as speed, port, autonegotiation, and PCI locations.
Build Time2006-12-14 20:42:43 GMT
Size61,295
0c10537c84314caccd4c6bacd8d6db54
LicenseGPL
Provides
ethtool = 5-1.fc7
Obsoletes No Obsoletes
Conflicts No Conflicts
Requires
libc.so.6
libc.so.6(GLIBC_2.0)
libc.so.6(GLIBC_2.3.4)
libc.so.6(GLIBC_2.4)
rpmlib(CompressedFileNames) <= 3.0.4-1
rpmlib(PayloadFilesHavePrefix) <= 4.0-1
rtld(GNU_HASH)
Recommends No Recommends
Suggests No Suggests
Supplements No Supplements
Enhances No Enhances
Files
1 through 10 of 10
Name ascending sort Size
/sbin/ethtool101,732
/usr/sbin/ethtool13
/usr/share/doc/ethtool-54,096
/usr/share/doc/ethtool-5/AUTHORS267
/usr/share/doc/ethtool-5/COPYING17,992
/usr/share/doc/ethtool-5/ChangeLog11,384
/usr/share/doc/ethtool-5/INSTALL9,273
/usr/share/doc/ethtool-5/NEWS3,141
/usr/share/doc/ethtool-5/README127
/usr/share/man/man8/ethtool.8.gz2,803
Component of
Page:
1 through 50 of 31854 >>>
Buildroot descending sort Created State
dist-olpc2-build-920205-85244 2010-11-07 09:32:46 expired
dist-f8-build-457093-71264 2009-05-19 22:16:46 expired
dist-f8-build-435826-71264 2009-04-22 13:44:23 expired
dist-f8-build-435363-71264 2009-04-22 01:46:44 expired
dist-f8-build-434846-71264 2009-04-21 21:32:06 expired
dist-f8-build-434820-71264 2009-04-21 21:19:39 expired
dist-f8-build-430512-68129 2009-04-17 01:48:26 expired
dist-f8-build-430509-68129 2009-04-17 01:37:17 expired
dist-f8-build-430504-68129 2009-04-17 01:15:55 expired
dist-f8-build-430491-68129 2009-04-17 01:00:11 expired
dist-f8-build-430441-68129 2009-04-17 00:12:14 expired
dist-f8-build-426330-68129 2009-04-13 07:59:14 expired
dist-f8-build-418216-68129 2009-04-02 07:26:34 expired
dist-f8-build-416382-68129 2009-03-31 12:42:05 expired
dist-f8-build-412896-68129 2009-03-26 03:45:02 expired
dist-f8-build-412881-68129 2009-03-26 02:57:44 expired
dist-f8-build-408958-68129 2009-03-20 09:25:20 expired
dist-f8-build-394628-65603 2009-03-04 17:55:13 expired
dist-f8-build-394624-65603 2009-03-04 17:50:04 expired
dist-f8-build-394314-65603 2009-03-04 15:06:28 expired
dist-f8-build-387054-65603 2009-02-27 15:02:56 expired
dist-f8-build-353113-65603 2009-02-19 17:38:45 expired
dist-f8-build-342984-58606 2009-02-05 04:02:38 expired
dist-f8-build-324944-58606 2009-01-11 03:45:53 expired
dist-f8-build-324939-58606 2009-01-11 03:24:01 expired
dist-f8-build-324932-58606 2009-01-11 02:44:11 expired
dist-f8-build-323473-58606 2009-01-08 16:22:55 expired
dist-f8-build-323122-58606 2009-01-08 04:41:37 expired
dist-f8-build-323074-58606 2009-01-08 00:28:41 expired
dist-f8-build-323033-58606 2009-01-07 23:18:10 expired
dist-f8-build-322935-58606 2009-01-07 21:28:09 expired
dist-f8-build-322891-58606 2009-01-07 20:39:43 expired
dist-f8-build-322493-58485 2009-01-07 10:19:49 expired
dist-f8-build-321926-58308 2009-01-06 14:30:23 expired
dist-f8-build-321863-58308 2009-01-06 12:46:00 expired
dist-f8-build-321543-58308 2009-01-05 23:08:04 expired
dist-f8-build-321346-58308 2009-01-05 18:11:16 expired
dist-f8-build-320987-57785 2009-01-05 10:31:13 expired
dist-f8-build-320558-57785 2009-01-04 18:09:50 expired
dist-f8-build-320499-57785 2009-01-04 15:55:20 expired
dist-f8-build-320224-57785 2009-01-03 15:55:50 expired
dist-f8-build-320074-57785 2009-01-03 06:39:13 expired
dist-f8-build-320069-57785 2009-01-03 06:37:06 expired
dist-f8-build-319856-57785 2009-01-02 14:15:00 expired
dist-f8-build-319831-57785 2009-01-02 13:05:42 expired
dist-f8-build-319733-57785 2009-01-02 07:50:57 expired
dist-f8-build-319726-57785 2009-01-02 07:28:38 expired
dist-f8-build-319697-57785 2009-01-02 04:55:31 expired
dist-f8-build-319677-57785 2009-01-02 04:05:17 expired
dist-f8-build-319625-57785 2009-01-01 22:50:30 expired